Pagrindinis puslapis
METAR-TAF:

METAR-TAF

Oro uostai :

Velingtonas, Naujoji Zelandija

platuma: 41-20S, ilguma: 174-48E, Aukštis: 12 m

Dabartinis oras

Ataskaita buvo paskelbta 33 minutes, ne 02:30 UTC
Vėjas 13 kt iš Šiaurės/Šiaurės Vakarų
Temperatūra 16°C
Drėgmė 63%
Slėgis 1013 hPa
Matomumas 10 km arba daugiau

METAR: NZWN 170230Z AUTO 33013KT 9999 NCD 16/09 Q1013 NOSIG

Laikas: 15:03 (03:03 UTC)

Prognozė

Ataskaita buvo paskelbta 4 valandos ir 2 minutes, ne 23:01 UTC
Prognozė galioja nuo 17 metu 00 UTC su 18 metu 00 UTC
Vėjas 15 kt iš Šiaurės
Matomumas 10 km arba daugiau
Mažai debesys ne aukštis 1400 ft
Išsisklaidę debesys ne aukštis 3000 ft
Nuo 17 metu 0400 UTC
Vėjas 15 kt iš Pietų/Pietryčių
Matomumas 10 km arba daugiau
Išsisklaidę debesys ne aukštis 3500 ft
Tapsmas
nuo 17 metu 08 UTC su 17 metu 10 UTC
Vėjas 5 kt iš Pietų/Pietryčių
Tapsmas
nuo 17 metu 18 UTC su 17 metu 20 UTC
Vėjas 10 kt iš Šiaurės/Šiaurės Rytų

TAF: NZWN 162301Z 1700/1800 36015KT 9999 FEW014 SCT030 FM170400 16015KT 9999 SCT035 BECMG 1708/1710 16005KT BECMG 1718/1720 02010KT

Orai ataskaitas ir orų prognozės (METAR, TAF).

turimą stotys yra geltonos ir raudonos taškus žemėlapyje.

Perkelti pele per norėdami pamatyti stoties vardą.

Tada spustelėkite, norėdami matyti oro stebėjimo ir prognozės.

Norėdami pakeisti žemėlapį: spustelėkite ant žalios mygtukų su juodo kryžiaus žemyn,; žalią mygtuką su brūkšneliu, jei norite nutolinti; arba žalių rodyklių gretimoms žemėlapius.


METAR-TAF: